Time;durP1;ratioP1;P1;durP2;ratioP2;P2;SDS_P1;SDS_P2;PMS_P1;PMS_P2;Temp;Humidity;BMP_temperature;BMP_pressure;BME280_temperature;BME280_humidity;BME280_pressure;Samples;Min_cycle;Max_cycle;Signal;HPM_P1;HPM_P2
2022/07/27 00:00:13;;;;;;;;;;;;;;;20.44;55.54;101713.41;1029430;28;638;-69
2022/07/27 00:01:03;;;;;;;;;;;;;;;20.50;55.22;101712.00;1029718;28;691;-69
2022/07/27 00:01:54;;;;;;;;;;;;;;;20.45;55.51;101715.13;1030067;28;1943;-69
2022/07/27 00:02:44;;;;;;;;;;;;;;;20.44;55.62;101718.81;1029558;28;627;-70
2022/07/27 00:03:34;;;;;;;;;;;;;;;20.43;55.36;101719.81;1030234;28;631;-69
2022/07/27 00:04:25;;;;;;;;;;;;;;;20.50;55.51;101717.41;1032865;28;1382;-70
2022/07/27 00:05:15;;;;;;;;;;;;;;;20.47;55.70;101720.41;1033597;28;666;-69
2022/07/27 00:06:06;;;;;;;;;;;;;;;20.49;55.59;101718.41;1033463;28;630;-70
2022/07/27 00:06:56;;;;;;;;;;;;;;;20.48;55.29;101717.56;1032495;28;647;-70
2022/07/27 00:07:47;;;;;;;;;;;;;;;20.44;54.64;101716.13;1032673;28;1159;-69
2022/07/27 00:08:37;;;;;;;;;;;;;;;20.34;55.93;101720.66;1033798;28;638;-69
2022/07/27 00:09:27;;;;;;;;;;;;;;;20.38;55.80;101719.41;1033210;28;725;-69
2022/07/27 00:10:18;;;;;;;;;;;;;;;20.44;55.32;101716.97;1033484;28;725;-69
2022/07/27 00:11:09;;;;;;;;;;;;;;;20.37;55.39;101718.56;1033604;28;697;-70
2022/07/27 00:11:59;;;;;;;;;;;;;;;20.38;55.74;101724.84;1032441;28;666;-68
2022/07/27 00:12:50;;;;;;;;;;;;;;;20.38;55.25;101720.28;1033555;28;693;-69
2022/07/27 00:13:40;;;;;;;;;;;;;;;20.36;55.50;101716.84;1032499;28;651;-70
2022/07/27 00:14:31;;;;;;;;;;;;;;;20.39;55.32;101719.28;1029127;28;638;-71
2022/07/27 00:15:21;;;;;;;;;;;;;;;20.42;55.19;101716.25;1029486;28;639;-70
2022/07/27 00:16:12;;;;;;;;;;;;;;;20.43;55.59;101712.56;1032323;28;1702;-69
2022/07/27 00:17:02;;;;;;;;;;;;;;;20.39;55.71;101711.16;1032264;28;608;-70
2022/07/27 00:17:52;;;;;;;;;;;;;;;20.42;54.95;101718.97;1033089;28;623;-70
2022/07/27 00:18:43;;;;;;;;;;;;;;;20.43;55.54;101720.69;1032886;28;684;-70
2022/07/27 00:19:33;;;;;;;;;;;;;;;20.42;55.13;101716.25;1032417;28;643;-69
2022/07/27 00:20:24;;;;;;;;;;;;;;;20.42;55.20;101713.56;1033098;28;693;-69
2022/07/27 00:21:14;;;;;;;;;;;;;;;20.47;55.47;101717.69;1032888;28;678;-70
2022/07/27 00:22:05;;;;;;;;;;;;;;;20.22;53.94;101719.94;1032903;28;1926;-70
2022/07/27 00:22:55;;;;;;;;;;;;;;;20.27;55.44;101717.66;1028575;28;706;-70
2022/07/27 00:23:45;;;;;;;;;;;;;;;20.31;55.79;101715.53;1028151;28;678;-70
2022/07/27 00:24:36;;;;;;;;;;;;;;;20.36;55.51;101716.84;1028969;28;702;-71
2022/07/27 00:25:26;;;;;;;;;;;;;;;20.31;55.31;101719.09;1029431;28;674;-71
2022/07/27 00:26:17;;;;;;;;;;;;;;;20.10;55.75;101726.47;1029500;28;642;-70
2022/07/27 00:27:07;;;;;;;;;;;;;;;20.05;55.71;101718.78;1029423;28;673;-70
2022/07/27 00:27:58;;;;;;;;;;;;;;;20.03;55.74;101719.91;1029444;28;668;-70
2022/07/27 00:28:48;;;;;;;;;;;;;;;20.13;56.08;101720.78;1032271;28;627;-69
2022/07/27 00:29:39;;;;;;;;;;;;;;;20.15;55.80;101717.94;1032190;28;651;-69
2022/07/27 00:30:29;;;;;;;;;;;;;;;20.18;56.06;101713.09;1024702;28;698;-70
2022/07/27 00:31:20;;;;;;;;;;;;;;;20.27;55.46;101716.78;1025111;28;698;-70
2022/07/27 00:32:10;;;;;;;;;;;;;;;20.32;55.21;101715.38;1029035;28;662;-70
2022/07/27 00:33:01;;;;;;;;;;;;;;;20.32;55.67;101715.38;1030005;28;674;-70
2022/07/27 00:33:51;;;;;;;;;;;;;;;20.39;55.45;101708.44;1029490;28;632;-70
2022/07/27 00:34:41;;;;;;;;;;;;;;;20.43;55.16;101719.81;1025833;28;722;-70
2022/07/27 00:35:32;;;;;;;;;;;;;;;20.41;55.50;101714.56;1025227;28;690;-70
2022/07/27 00:36:22;;;;;;;;;;;;;;;20.38;55.53;101712.16;1028484;28;647;-71
2022/07/27 00:37:13;;;;;;;;;;;;;;;20.34;55.45;101713.38;1029534;28;647;-69
2022/07/27 00:38:03;;;;;;;;;;;;;;;20.31;55.84;101719.09;1029477;28;667;-69
2022/07/27 00:38:54;;;;;;;;;;;;;;;20.35;55.36;101712.41;1029549;28;746;-70
2022/07/27 00:39:44;;;;;;;;;;;;;;;20.34;55.69;101713.38;1029507;28;674;-70
2022/07/27 00:40:35;;;;;;;;;;;;;;;20.35;55.79;101711.53;1028351;28;706;-69
2022/07/27 00:41:25;;;;;;;;;;;;;;;20.38;55.34;101709.44;1029548;28;631;-71
2022/07/27 00:42:16;;;;;;;;;;;;;;;20.38;55.41;101712.16;1025577;28;1961;-70
2022/07/27 00:43:06;;;;;;;;;;;;;;;20.39;55.47;101708.44;1028081;28;615;-70
2022/07/27 00:43:56;;;;;;;;;;;;;;;20.41;55.37;101717.28;1028486;28;690;-70
2022/07/27 00:44:47;;;;;;;;;;;;;;;20.35;55.70;101708.84;1028210;28;691;-70
2022/07/27 00:45:37;;;;;;;;;;;;;;;20.38;55.75;101709.44;1028425;28;643;-70
2022/07/27 00:46:28;;;;;;;;;;;;;;;20.42;55.37;101718.16;1028367;28;666;-70
2022/07/27 00:47:18;;;;;;;;;;;;;;;20.36;55.20;101705.13;1028340;28;687;-68
2022/07/27 00:48:09;;;;;;;;;;;;;;;20.36;55.50;101711.44;1028382;28;722;-71
2022/07/27 00:48:59;;;;;;;;;;;;;;;20.30;55.99;101711.09;1028227;28;631;-71
2022/07/27 00:49:50;;;;;;;;;;;;;;;20.22;55.47;101708.25;1028463;28;683;-71
2022/07/27 00:50:40;;;;;;;;;;;;;;;20.17;54.80;101716.78;1029032;28;1174;-69
2022/07/27 00:51:30;;;;;;;;;;;;;;;20.14;56.12;101713.50;1028584;28;646;-70
2022/07/27 00:52:21;;;;;;;;;;;;;;;20.24;56.20;101709.84;1028962;28;701;-69
2022/07/27 00:53:11;;;;;;;;;;;;;;;20.28;55.81;101710.38;1028310;28;718;-69
2022/07/27 00:54:02;;;;;;;;;;;;;;;20.30;55.88;101711.97;1029176;28;696;-71
2022/07/27 00:54:52;;;;;;;;;;;;;;;20.33;55.43;101710.81;1028588;28;641;-70
2022/07/27 00:55:43;;;;;;;;;;;;;;;20.32;55.27;101709.97;1029146;28;669;-70
2022/07/27 00:56:33;;;;;;;;;;;;;;;20.36;55.28;101710.53;1028865;28;746;-70
2022/07/27 00:57:23;;;;;;;;;;;;;;;20.36;55.76;101713.25;1028435;28;663;-70
2022/07/27 00:58:14;;;;;;;;;;;;;;;20.30;55.69;101705.69;1028216;28;643;-70
2022/07/27 00:59:04;;;;;;;;;;;;;;;20.31;55.48;101713.66;1028264;28;611;-70
2022/07/27 00:59:55;;;;;;;;;;;;;;;20.36;55.37;101706.03;1027956;28;650;-70
2022/07/27 01:00:45;;;;;;;;;;;;;;;20.39;55.12;101710.31;1028278;28;635;-70
2022/07/27 01:01:36;;;;;;;;;;;;;;;20.38;54.81;101709.44;1028881;28;654;-70
2022/07/27 01:02:26;;;;;;;;;;;;;;;20.27;55.07;101709.53;1029392;28;607;-70
2022/07/27 01:03:16;;;;;;;;;;;;;;;20.31;55.84;101707.41;1029440;28;725;-70
2022/07/27 01:04:07;;;;;;;;;;;;;;;20.34;55.63;101713.38;1029377;28;627;-70
2022/07/27 01:04:57;;;;;;;;;;;;;;;20.35;55.65;101717.81;1028771;28;635;-70
2022/07/27 01:05:48;;;;;;;;;;;;;;;20.32;55.52;101715.38;1025080;28;643;-70
2022/07/27 01:06:38;;;;;;;;;;;;;;;20.29;55.73;101712.94;1025688;28;674;-70
2022/07/27 01:07:31;;;;;;;;;;;;;;;20.33;55.12;101706.25;1029405;28;1321;-70
2022/07/27 01:08:21;;;;;;;;;;;;;;;20.36;55.13;101714.13;1028169;28;613;-69
2022/07/27 01:10:21;;;;;;;;;;;;;;;20.39;55.19;101710.31;1028183;28;615;-69
2022/07/27 01:11:11;;;;;;;;;;;;;;;20.39;55.35;101711.16;1032098;28;1625;-69
2022/07/27 01:12:02;;;;;;;;;;;;;;;20.36;55.49;101711.44;1033432;28;689;-71
2022/07/27 01:12:52;;;;;;;;;;;;;;;20.37;55.47;101713.16;1033374;28;686;-70
2022/07/27 01:13:43;;;;;;;;;;;;;;;20.36;55.41;101711.44;1032376;28;730;-70
2022/07/27 01:14:33;;;;;;;;;;;;;;;20.29;55.68;101709.38;1032514;28;641;-70
2022/07/27 01:15:24;;;;;;;;;;;;;;;20.31;55.25;101708.25;1032680;28;654;-70
2022/07/27 01:16:14;;;;;;;;;;;;;;;20.31;55.70;101704.69;1033011;28;610;-71
2022/07/27 01:17:05;;;;;;;;;;;;;;;20.32;55.40;101704.56;1033284;28;637;-71
2022/07/27 01:17:56;;;;;;;;;;;;;;;20.34;55.49;101710.69;1032407;28;718;-71
2022/07/27 01:18:46;;;;;;;;;;;;;;;20.30;55.35;101703.84;1033409;28;677;-71
2022/07/27 01:19:36;;;;;;;;;;;;;;;20.36;55.42;101708.72;1033385;28;681;-71
2022/07/27 01:20:27;;;;;;;;;;;;;;;20.37;55.11;101709.59;1032562;28;702;-71
2022/07/27 01:21:17;;;;;;;;;;;;;;;20.36;55.50;101713.25;1028909;28;688;-71
2022/07/27 01:22:08;;;;;;;;;;;;;;;20.37;55.33;101712.28;1028838;28;1978;-71
2022/07/27 01:22:58;;;;;;;;;;;;;;;20.32;55.43;101707.25;1029587;28;1513;-70
2022/07/27 01:23:49;;;;;;;;;;;;;;;20.32;55.53;101707.25;1028514;28;597;-70
2022/07/27 01:24:40;;;;;;;;;;;;;;;20.32;55.49;101709.97;1032265;28;820;-69
2022/07/27 01:25:30;;;;;;;;;;;;;;;20.31;55.39;101705.53;1033271;28;713;-70
2022/07/27 01:26:20;;;;;;;;;;;;;;;20.31;55.34;101710.09;1032346;28;647;-69
2022/07/27 01:27:11;;;;;;;;;;;;;;;20.29;55.99;101715.66;1032876;28;666;-70
2022/07/27 01:28:01;;;;;;;;;;;;;;;20.30;55.69;101705.69;1032301;28;635;-70
2022/07/27 01:28:52;;;;;;;;;;;;;;;20.33;55.52;101703.56;1032447;28;694;-70
2022/07/27 01:29:42;;;;;;;;;;;;;;;20.32;55.21;101701.84;1033280;28;665;-70
2022/07/27 01:30:34;;;;;;;;;;;;;;;20.37;55.54;101705.03;1032326;28;733;-70
2022/07/27 01:31:24;;;;;;;;;;;;;;;20.35;55.15;101704.28;1028861;28;718;-70
2022/07/27 01:32:15;;;;;;;;;;;;;;;20.37;55.26;101699.59;1029313;28;651;-70
2022/07/27 01:33:05;;;;;;;;;;;;;;;20.39;54.89;101700.31;1029496;28;679;-69
2022/07/27 01:33:56;;;;;;;;;;;;;;;20.34;55.11;101702.56;1032161;28;1585;-70
2022/07/27 01:34:46;;;;;;;;;;;;;;;20.31;55.23;101707.41;1033109;28;761;-70
2022/07/27 01:35:36;;;;;;;;;;;;;;;20.32;55.60;101704.56;1032880;28;614;-70
2022/07/27 01:36:27;;;;;;;;;;;;;;;20.34;55.52;101704.41;1032740;28;693;-70
2022/07/27 01:37:17;;;;;;;;;;;;;;;20.30;55.20;101705.69;1032869;28;676;-70
2022/07/27 01:38:08;;;;;;;;;;;;;;;20.36;55.44;101699.72;1032768;28;686;-70
2022/07/27 01:38:58;;;;;;;;;;;;;;;20.43;55.36;101695.44;1028529;28;674;-70
2022/07/27 01:39:49;;;;;;;;;;;;;;;20.39;55.12;101703.03;1029038;28;675;-70
2022/07/27 01:40:39;;;;;;;;;;;;;;;20.40;55.12;101695.78;1032562;28;1637;-68
2022/07/27 01:41:30;;;;;;;;;;;;;;;20.39;55.36;101704.88;1032905;28;657;-69
2022/07/27 01:42:20;;;;;;;;;;;;;;;20.32;55.50;101701.84;1032380;28;640;-69
2022/07/27 01:43:10;;;;;;;;;;;;;;;20.29;55.28;101701.25;1033216;28;630;-69
2022/07/27 01:44:01;;;;;;;;;;;;;;;20.34;55.30;101705.28;1033001;28;603;-70
2022/07/27 01:44:51;;;;;;;;;;;;;;;20.26;55.58;101694.28;1032180;28;673;-70
2022/07/27 01:45:42;;;;;;;;;;;;;;;20.28;55.47;101703.13;1034138;28;665;-69
2022/07/27 01:46:32;;;;;;;;;;;;;;;20.31;55.74;101697.44;1033204;28;638;-70
2022/07/27 01:47:23;;;;;;;;;;;;;;;20.34;55.22;101694.44;1033535;28;737;-71
2022/07/27 01:48:13;;;;;;;;;;;;;;;20.34;55.24;101697.16;1032685;28;702;-69
2022/07/27 01:49:04;;;;;;;;;;;;;;;20.38;55.23;101692.34;1033020;28;611;-69
2022/07/27 01:49:54;;;;;;;;;;;;;;;20.38;55.39;101692.34;1032552;28;685;-69
2022/07/27 01:50:44;;;;;;;;;;;;;;;20.33;55.37;101695.44;1032058;28;1644;-70
2022/07/27 01:51:35;;;;;;;;;;;;;;;20.35;55.39;101695.28;1033020;28;713;-71
2022/07/27 01:52:25;;;;;;;;;;;;;;;20.37;55.02;101686.06;1031949;28;1562;-71
2022/07/27 01:53:16;;;;;;;;;;;;;;;20.37;55.07;101686.06;1032928;28;626;-71
2022/07/27 01:54:06;;;;;;;;;;;;;;;20.38;54.96;101689.63;1029071;28;713;-71
2022/07/27 01:54:56;;;;;;;;;;;;;;;20.33;55.54;101698.16;1029739;28;638;-70
2022/07/27 01:55:47;;;;;;;;;;;;;;;20.32;55.55;101687.47;1032404;28;667;-70
2022/07/27 01:56:37;;;;;;;;;;;;;;;20.30;55.33;101690.31;1032765;28;652;-71
2022/07/27 01:57:28;;;;;;;;;;;;;;;20.34;55.64;101689.03;1029109;28;710;-71
2022/07/27 01:58:18;;;;;;;;;;;;;;;20.36;55.28;101695.19;1028491;28;646;-71
2022/07/27 01:59:09;;;;;;;;;;;;;;;20.36;55.38;101688.88;1033080;28;1625;-70
2022/07/27 01:59:59;;;;;;;;;;;;;;;20.37;55.13;101687.91;1033413;28;603;-71
2022/07/27 02:00:50;;;;;;;;;;;;;;;20.27;55.33;101684.31;1033320;28;689;-70
2022/07/27 02:01:40;;;;;;;;;;;;;;;20.29;55.29;101694.00;1033846;28;606;-69
2022/07/27 02:02:31;;;;;;;;;;;;;;;20.27;55.81;101692.44;1033267;28;657;-69
2022/07/27 02:03:21;;;;;;;;;;;;;;;20.30;55.44;101695.72;1033379;28;683;-69
2022/07/27 02:04:11;;;;;;;;;;;;;;;20.27;55.71;101679.75;1033711;28;673;-69
2022/07/27 02:05:02;;;;;;;;;;;;;;;20.29;55.20;101694.00;1032496;28;663;-69
2022/07/27 02:05:52;;;;;;;;;;;;;;;20.33;55.43;101692.72;1032977;28;697;-70
2022/07/27 02:06:43;;;;;;;;;;;;;;;20.31;55.30;101691.16;1029279;28;656;-69
2022/07/27 02:07:33;;;;;;;;;;;;;;;20.30;55.74;101692.16;1029114;28;591;-69
2022/07/27 02:08:24;;;;;;;;;;;;;;;20.33;55.49;101687.31;1032802;28;675;-69
2022/07/27 02:09:14;;;;;;;;;;;;;;;20.32;55.00;101691.00;1033677;28;1581;-70
2022/07/27 02:10:05;;;;;;;;;;;;;;;20.28;55.87;101694.13;1032701;28;660;-69
2022/07/27 02:13:14;;;;;;;;;;;;;;;20.23;55.78;101696.44;1033701;28;870;-69
2022/07/27 02:14:04;;;;;;;;;;;;;;;20.26;55.37;101694.28;1029156;28;705;-71
2022/07/27 02:14:54;;;;;;;;;;;;;;;20.30;55.63;101697.56;1029916;28;658;-70
2022/07/27 02:15:45;;;;;;;;;;;;;;;20.23;55.27;101689.19;1033850;28;732;-70
2022/07/27 02:16:35;;;;;;;;;;;;;;;20.27;55.81;101692.44;1029116;28;710;-70
2022/07/27 02:17:26;;;;;;;;;;;;;;;20.15;55.92;101698.97;1029893;28;1582;-69
2022/07/27 02:18:16;;;;;;;;;;;;;;;20.22;55.38;101694.72;1033862;28;646;-72
2022/07/27 02:19:07;;;;;;;;;;;;;;;20.20;55.27;101688.59;1034067;28;768;-70
2022/07/27 02:19:57;;;;;;;;;;;;;;;20.26;55.72;101691.56;1035009;28;622;-70
2022/07/27 02:20:48;;;;;;;;;;;;;;;20.24;54.99;101690.03;1034112;28;654;-70
2022/07/27 02:21:38;;;;;;;;;;;;;;;20.23;55.83;101682.91;1033581;28;657;-69
2022/07/27 02:22:29;;;;;;;;;;;;;;;20.22;55.58;101692.88;1033931;28;792;-69
2022/07/27 02:23:19;;;;;;;;;;;;;;;20.21;55.83;101693.88;1029993;28;606;-70
2022/07/27 02:24:10;;;;;;;;;;;;;;;20.23;55.38;101691.88;1033485;28;653;-69
2022/07/27 02:25:00;;;;;;;;;;;;;;;20.25;55.51;101689.88;1034198;28;650;-72
2022/07/27 02:25:50;;;;;;;;;;;;;;;20.23;55.44;101685.63;1033900;28;616;-69
2022/07/27 02:26:41;;;;;;;;;;;;;;;20.16;54.87;101682.59;1034199;28;619;-69
2022/07/27 02:27:32;;;;;;;;;;;;;;;20.18;55.28;101686.03;1034131;28;1617;-70
2022/07/27 02:28:22;;;;;;;;;;;;;;;20.20;55.73;101683.19;1033727;28;670;-70
2022/07/27 02:29:13;;;;;;;;;;;;;;;20.24;55.58;101685.47;1034617;28;635;-70
2022/07/27 02:30:03;;;;;;;;;;;;;;;20.24;55.22;101685.47;1033987;28;592;-69
2022/07/27 02:30:53;;;;;;;;;;;;;;;20.10;55.52;101683.16;1033425;28;671;-69
2022/07/27 02:31:45;;;;;;;;;;;;;;;20.12;55.72;101681.16;1034706;28;639;-69
2022/07/27 02:32:35;;;;;;;;;;;;;;;20.21;55.64;101679.47;1032723;28;631;-69
2022/07/27 02:33:26;;;;;;;;;;;;;;;20.26;55.74;101682.59;1033053;28;634;-70
2022/07/27 02:34:16;;;;;;;;;;;;;;;20.28;55.19;101676.06;1034639;28;644;-70
2022/07/27 02:35:07;;;;;;;;;;;;;;;20.29;55.06;101685.03;1033939;28;602;-69
2022/07/27 02:35:57;;;;;;;;;;;;;;;20.04;54.31;101681.88;1034062;28;694;-69
2022/07/27 02:36:48;;;;;;;;;;;;;;;20.04;55.81;101679.19;1034539;28;642;-69
2022/07/27 02:37:38;;;;;;;;;;;;;;;20.14;55.80;101673.78;1032431;28;1393;-68
2022/07/27 02:38:29;;;;;;;;;;;;;;;20.16;55.52;101677.19;1033679;28;698;-69
2022/07/27 02:39:19;;;;;;;;;;;;;;;20.22;55.63;101676.63;1029291;28;607;-69
2022/07/27 02:40:09;;;;;;;;;;;;;;;20.23;55.89;101675.66;1029692;28;900;-69
2022/07/27 02:41:00;;;;;;;;;;;;;;;20.15;55.73;101672.78;1033955;28;680;-69
2022/07/27 02:41:50;;;;;;;;;;;;;;;20.22;55.60;101675.78;1032817;28;623;-69
2022/07/27 02:42:41;;;;;;;;;;;;;;;19.96;55.71;101676.31;1028922;28;683;-69
2022/07/27 02:43:31;;;;;;;;;;;;;;;20.06;56.12;101673.63;1030126;28;622;-68
2022/07/27 02:44:22;;;;;;;;;;;;;;;20.07;56.12;101678.03;1033462;28;666;-69
2022/07/27 02:45:12;;;;;;;;;;;;;;;20.16;55.81;101670.94;1033334;28;675;-69
2022/07/27 02:46:03;;;;;;;;;;;;;;;20.17;55.88;101678.91;1029517;28;654;-67
2022/07/27 02:46:53;;;;;;;;;;;;;;;20.07;55.31;101678.88;1028347;28;625;-70
2022/07/27 02:47:44;;;;;;;;;;;;;;;20.13;55.81;101680.19;1033866;28;744;-69
2022/07/27 02:48:34;;;;;;;;;;;;;;;20.18;55.16;101679.75;1035071;28;710;-69
2022/07/27 02:49:25;;;;;;;;;;;;;;;20.17;55.76;101681.59;1033891;28;654;-68
2022/07/27 02:50:15;;;;;;;;;;;;;;;20.16;55.47;101677.19;1034198;28;787;-70
2022/07/27 02:51:06;;;;;;;;;;;;;;;19.98;55.95;101679.75;1033725;28;1742;-69
2022/07/27 02:51:56;;;;;;;;;;;;;;;20.02;55.61;101674.91;1032646;28;662;-69
2022/07/27 02:52:47;;;;;;;;;;;;;;;19.99;56.28;101686.00;1032764;28;618;-70
2022/07/27 02:53:37;;;;;;;;;;;;;;;20.10;56.21;101677.75;1031933;28;647;-70
2022/07/27 02:54:30;;;;;;;;;;;;;;;20.14;55.60;101679.19;1032218;28;627;-70
2022/07/27 02:55:21;;;;;;;;;;;;;;;20.19;55.50;101682.31;1033775;28;690;-70
2022/07/27 02:56:11;;;;;;;;;;;;;;;20.20;55.67;101677.78;1032444;28;685;-71
2022/07/27 02:57:03;;;;;;;;;;;;;;;20.24;55.64;101679.22;1031873;28;1636;-70
2022/07/27 02:57:53;;;;;;;;;;;;;;;20.18;55.71;101675.19;1033452;28;595;-71
2022/07/27 02:58:44;;;;;;;;;;;;;;;20.20;55.36;101675.06;1033032;28;710;-70
2022/07/27 02:59:34;;;;;;;;;;;;;;;20.21;55.51;101674.06;1033505;28;717;-70
2022/07/27 03:00:25;;;;;;;;;;;;;;;20.02;54.37;101675.75;1034349;28;658;-71
2022/07/27 03:01:15;;;;;;;;;;;;;;;19.93;56.42;101670.31;1033574;28;690;-70
2022/07/27 03:02:06;;;;;;;;;;;;;;;19.96;56.13;101670.03;1033566;28;1965;-70
2022/07/27 03:02:56;;;;;;;;;;;;;;;19.96;55.96;101664.63;1030183;28;826;-70
2022/07/27 03:03:46;;;;;;;;;;;;;;;20.07;56.16;101680.72;1032590;28;659;-69
2022/07/27 03:04:37;;;;;;;;;;;;;;;20.13;55.34;101682.03;1034528;28;686;-69
2022/07/27 03:05:27;;;;;;;;;;;;;;;20.16;55.99;101676.34;1033903;28;785;-70
2022/07/27 03:06:18;;;;;;;;;;;;;;;20.10;56.19;101678.59;1033876;28;614;-68
2022/07/27 03:07:08;;;;;;;;;;;;;;;20.13;55.78;101674.75;1034867;28;1577;-68
2022/07/27 03:07:59;;;;;;;;;;;;;;;20.09;56.00;101676.88;1033126;28;1242;-70
2022/07/27 03:08:49;;;;;;;;;;;;;;;20.11;55.92;101672.19;1032666;28;678;-69
2022/07/27 03:09:40;;;;;;;;;;;;;;;20.16;55.58;101676.34;1033966;28;650;-69
2022/07/27 03:10:30;;;;;;;;;;;;;;;20.15;55.72;101680.91;1028941;28;714;-70
2022/07/27 03:11:20;;;;;;;;;;;;;;;20.16;55.84;101682.59;1029035;28;824;-70
2022/07/27 03:12:11;;;;;;;;;;;;;;;20.16;55.79;101677.19;1033474;28;729;-69
2022/07/27 03:13:01;;;;;;;;;;;;;;;20.12;55.40;101675.75;1028477;28;682;-71
2022/07/27 03:13:52;;;;;;;;;;;;;;;20.20;55.86;101669.66;1030776;28;725;-70
2022/07/27 03:14:42;;;;;;;;;;;;;;;20.14;55.53;101679.19;1033713;28;741;-70
2022/07/27 03:15:33;;;;;;;;;;;;;;;20.18;55.62;101675.19;1032740;28;674;-70
2022/07/27 03:16:23;;;;;;;;;;;;;;;20.18;55.93;101679.75;1033861;28;713;-69
2022/07/27 03:17:14;;;;;;;;;;;;;;;20.18;55.49;101674.34;1028732;28;621;-70
2022/07/27 03:18:04;;;;;;;;;;;;;;;20.18;56.08;101677.91;1029725;28;685;-70
2022/07/27 03:18:56;;;;;;;;;;;;;;;20.20;55.76;101678.63;1030281;28;674;-70
2022/07/27 03:19:48;;;;;;;;;;;;;;;20.26;55.57;101672.63;1029810;28;646;-70
2022/07/27 03:20:39;;;;;;;;;;;;;;;20.23;55.73;101677.50;1029707;28;852;-71
2022/07/27 03:21:29;;;;;;;;;;;;;;;20.10;55.90;101675.03;1030499;28;668;-71
2022/07/27 03:22:19;;;;;;;;;;;;;;;20.10;56.00;101677.75;1029672;28;1899;-72
2022/07/27 03:23:10;;;;;;;;;;;;;;;20.11;55.94;101677.59;1029086;28;694;-70
2022/07/27 03:24:00;;;;;;;;;;;;;;;20.04;56.08;101673.78;1030206;28;624;-70
2022/07/27 03:24:51;;;;;;;;;;;;;;;20.06;55.79;101679.06;1029206;28;654;-70
2022/07/27 03:25:41;;;;;;;;;;;;;;;19.93;55.06;101676.59;1030468;28;717;-70
2022/07/27 03:26:32;;;;;;;;;;;;;;;20.04;55.57;101686.44;1029839;28;648;-70
2022/07/27 03:27:22;;;;;;;;;;;;;;;19.95;56.04;101677.31;1028946;28;643;-70
2022/07/27 03:28:13;;;;;;;;;;;;;;;19.53;57.42;101684.72;1029594;28;639;-70
2022/07/27 03:29:03;;;;;;;;;;;;;;;19.69;56.69;101676.13;1028728;28;660;-70
2022/07/27 03:29:53;;;;;;;;;;;;;;;19.90;56.47;101676.00;1029721;28;727;-71
2022/07/27 03:30:44;;;;;;;;;;;;;;;19.94;56.51;101682.84;1030300;28;658;-71
2022/07/27 03:31:34;;;;;;;;;;;;;;;19.93;55.44;101673.03;1026051;28;638;-71
2022/07/27 03:32:25;;;;;;;;;;;;;;;20.00;56.33;101674.19;1025455;28;658;-69
2022/07/27 03:33:15;;;;;;;;;;;;;;;19.92;56.00;101668.59;1030070;28;655;-69
2022/07/27 03:34:06;;;;;;;;;;;;;;;19.90;55.86;101681.41;1028765;28;647;-69
2022/07/27 03:34:56;;;;;;;;;;;;;;;19.89;56.32;101680.56;1029453;28;690;-70
2022/07/27 03:35:46;;;;;;;;;;;;;;;19.94;56.30;101686.41;1029839;28;658;-71
2022/07/27 03:36:37;;;;;;;;;;;;;;;19.99;56.23;101680.59;1029704;28;690;-69
2022/07/27 03:37:27;;;;;;;;;;;;;;;19.66;55.23;101679.09;1026467;28;717;-69
2022/07/27 03:38:18;;;;;;;;;;;;;;;19.82;56.76;101681.28;1024916;29;679;-69
2022/07/27 03:39:08;;;;;;;;;;;;;;;19.87;56.05;101681.72;1029289;28;785;-70
2022/07/27 03:39:59;;;;;;;;;;;;;;;19.97;56.19;101679.88;1030176;28;670;-69
2022/07/27 03:40:49;;;;;;;;;;;;;;;19.79;55.01;101678.84;1029658;28;654;-70
2022/07/27 03:41:40;;;;;;;;;;;;;;;19.92;55.92;101691.09;1029645;28;603;-69
2022/07/27 03:42:30;;;;;;;;;;;;;;;19.96;56.04;101680.88;1030572;28;643;-70
2022/07/27 03:43:20;;;;;;;;;;;;;;;20.05;56.07;101680.03;1026025;28;655;-72
2022/07/27 03:44:11;;;;;;;;;;;;;;;20.12;56.05;101681.16;1025839;28;701;-70
2022/07/27 03:45:01;;;;;;;;;;;;;;;19.89;55.90;101683.25;1029380;28;678;-70
2022/07/27 03:45:52;;;;;;;;;;;;;;;19.93;55.74;101682.00;1028545;28;745;-70
2022/07/27 03:46:42;;;;;;;;;;;;;;;20.05;55.69;101685.47;1029731;28;1569;-70
2022/07/27 03:47:33;;;;;;;;;;;;;;;20.08;56.05;101685.16;1033761;28;651;-70
2022/07/27 03:48:23;;;;;;;;;;;;;;;20.15;56.03;101683.59;1033685;28;702;-70
2022/07/27 03:49:13;;;;;;;;;;;;;;;20.15;55.93;101683.59;1033735;28;646;-69
2022/07/27 03:50:04;;;;;;;;;;;;;;;20.13;55.47;101682.88;1033627;28;919;-69
2022/07/27 03:50:54;;;;;;;;;;;;;;;20.15;55.62;101688.16;1033604;28;1162;-70
2022/07/27 03:51:45;;;;;;;;;;;;;;;20.15;55.81;101686.31;1031794;28;627;-70
2022/07/27 03:52:35;;;;;;;;;;;;;;;20.11;55.79;101690.28;1031827;28;635;-69
2022/07/27 03:53:26;;;;;;;;;;;;;;;20.11;55.82;101687.56;1032014;28;822;-70
2022/07/27 03:54:16;;;;;;;;;;;;;;;20.05;55.43;101685.47;1028731;28;729;-70
2022/07/27 03:55:07;;;;;;;;;;;;;;;20.08;55.62;101694.13;1029253;28;671;-70
2022/07/27 03:55:57;;;;;;;;;;;;;;;20.03;56.33;101688.28;1032800;28;717;-70
2022/07/27 03:56:47;;;;;;;;;;;;;;;20.06;55.76;101695.28;1029293;28;1636;-72
2022/07/27 03:57:38;;;;;;;;;;;;;;;19.94;55.27;101697.25;1025319;28;813;-70
2022/07/27 03:58:28;;;;;;;;;;;;;;;19.88;56.25;101695.09;1029865;28;678;-70
2022/07/27 03:59:19;;;;;;;;;;;;;;;19.79;56.63;101700.47;1029697;28;717;-69
2022/07/27 04:00:13;;;;;;;;;;;;;;;19.92;56.45;101690.25;1029620;28;619;-69
2022/07/27 04:01:03;;;;;;;;;;;;;;;20.00;55.66;101696.69;1029214;28;684;-70
2022/07/27 04:01:53;;;;;;;;;;;;;;;20.03;55.47;101688.28;1025320;28;706;-71
2022/07/27 04:02:44;;;;;;;;;;;;;;;19.95;56.26;101695.38;1025943;28;642;-71
2022/07/27 04:03:34;;;;;;;;;;;;;;;19.95;56.08;101689.97;1030042;28;607;-71
2022/07/27 04:04:25;;;;;;;;;;;;;;;20.00;56.44;101690.41;1024893;29;611;-69
2022/07/27 04:05:15;;;;;;;;;;;;;;;20.05;56.12;101690.88;1025700;28;670;-69
2022/07/27 04:06:06;;;;;;;;;;;;;;;20.02;55.75;101683.88;1029633;28;627;-70
2022/07/27 04:06:56;;;;;;;;;;;;;;;20.03;55.80;101690.16;1026395;28;1598;-70
2022/07/27 04:07:46;;;;;;;;;;;;;;;20.01;56.23;101689.44;1029178;28;1364;-69
2022/07/27 04:08:37;;;;;;;;;;;;;;;20.05;56.02;101690.88;1029229;28;664;-70
2022/07/27 04:09:27;;;;;;;;;;;;;;;20.06;55.72;101689.88;1028364;28;963;-70
2022/07/27 04:10:18;;;;;;;;;;;;;;;20.11;55.50;101685.72;1029261;28;658;-71
2022/07/27 04:11:08;;;;;;;;;;;;;;;20.09;55.86;101685.00;1028634;28;685;-69
2022/07/27 04:11:59;;;;;;;;;;;;;;;20.06;55.48;101693.41;1028574;28;694;-69
2022/07/27 04:12:49;;;;;;;;;;;;;;;19.99;55.46;101686.00;1029327;28;781;-69
2022/07/27 04:13:42;;;;;;;;;;;;;;;19.97;55.92;101690.69;1028987;28;627;-69
2022/07/27 04:14:32;;;;;;;;;;;;;;;20.03;55.58;101687.44;1029498;28;737;-70
2022/07/27 04:15:22;;;;;;;;;;;;;;;20.10;55.61;101688.56;1028396;28;631;-70
2022/07/27 04:16:13;;;;;;;;;;;;;;;19.99;55.74;101694.13;1028345;28;1038;-69
2022/07/27 04:17:03;;;;;;;;;;;;;;;19.90;55.71;101697.66;1029896;28;1664;-69
2022/07/27 04:17:54;;;;;;;;;;;;;;;19.91;55.83;101693.94;1033631;28;634;-70
2022/07/27 04:18:44;;;;;;;;;;;;;;;19.94;56.00;101699.09;1033357;28;696;-69
2022/07/27 04:19:35;;;;;;;;;;;;;;;20.01;55.51;101689.44;1034380;28;705;-69
2022/07/27 04:20:25;;;;;;;;;;;;;;;20.00;55.76;101698.53;1032819;28;619;-70
2022/07/27 04:21:16;;;;;;;;;;;;;;;20.05;55.79;101696.28;1033580;28;661;-69
2022/07/27 04:22:06;;;;;;;;;;;;;;;20.09;55.90;101697.69;1033240;28;1910;-70
2022/07/27 04:22:57;;;;;;;;;;;;;;;20.08;55.38;101686.00;1032976;28;686;-69
2022/07/27 04:23:47;;;;;;;;;;;;;;;20.08;55.89;101696.81;1033572;28;631;-70
2022/07/27 04:24:37;;;;;;;;;;;;;;;20.06;55.85;101695.28;1034286;28;638;-69
2022/07/27 04:25:28;;;;;;;;;;;;;;;19.89;55.01;101693.22;1033592;28;736;-69
2022/07/27 04:26:18;;;;;;;;;;;;;;;19.75;55.50;101700.75;1033537;28;624;-69
2022/07/27 04:27:09;;;;;;;;;;;;;;;19.51;56.16;101702.97;1034096;28;1648;-70
2022/07/27 04:27:59;;;;;;;;;;;;;;;19.62;56.56;101696.59;1028645;28;612;-69
2022/07/27 04:28:50;;;;;;;;;;;;;;;19.72;56.46;101710.97;1028657;28;722;-69